Time;durP1;ratioP1;P1;durP2;ratioP2;P2;SDS_P1;SDS_P2;PMS_P1;PMS_P2;Temp;Humidity;BMP_temperature;BMP_pressure;BME280_temperature;BME280_humidity;BME280_pressure;Samples;Min_cycle;Max_cycle;Signal;HPM_P1;HPM_P2
2023/12/30 00:00:39;;;;;;;3.00;1.40;;;;;;;8.91;83.58;99779.02;105602;1252;72826;-58
2023/12/30 00:03:28;;;;;;;2.30;1.20;;;;;;;8.90;83.60;99773.14;105567;1259;83313;-59
2023/12/30 00:05:56;;;;;;;1.60;1.00;;;;;;;8.87;83.42;99775.71;105552;1257;71140;-59
2023/12/30 00:08:24;;;;;;;2.10;1.00;;;;;;;8.86;83.54;99776.81;105548;1257;69126;-59
2023/12/30 00:10:52;;;;;;;4.20;1.00;;;;;;;8.86;83.59;99773.46;105632;1257;69175;-59
2023/12/30 00:13:20;;;;;;;2.30;1.00;;;;;;;8.88;83.63;99772.86;105560;1252;74128;-59
2023/12/30 00:15:49;;;;;;;2.20;1.20;;;;;;;8.91;83.60;99775.01;105544;1255;81498;-58
2023/12/30 00:18:17;;;;;;;1.50;0.90;;;;;;;8.91;83.47;99769.29;105531;1251;73291;-59
2023/12/30 00:20:45;;;;;;;2.10;1.10;;;;;;;8.90;83.41;99767.56;105629;1264;69122;-58
2023/12/30 00:23:14;;;;;;;1.90;1.00;;;;;;;8.89;83.47;99766.02;105546;1256;69181;-58
2023/12/30 00:25:42;;;;;;;2.20;1.10;;;;;;;8.89;83.35;99764.98;105578;1251;72805;-59
2023/12/30 00:28:10;;;;;;;2.00;1.20;;;;;;;8.89;83.40;99766.73;105607;1257;81700;-58
2023/12/30 00:30:38;;;;;;;1.70;1.00;;;;;;;8.89;83.30;99767.23;105522;1251;73046;-59
2023/12/30 00:33:06;;;;;;;5.10;2.20;;;;;;;8.91;83.41;99764.05;105584;1256;69225;-59
2023/12/30 00:35:35;;;;;;;1.90;1.30;;;;;;;8.91;83.46;99766.12;105569;1251;69193;-58
2023/12/30 00:38:03;;;;;;;2.50;1.60;;;;;;;8.93;83.37;99758.75;105567;1251;73356;-59
2023/12/30 00:40:31;;;;;;;1.50;1.00;;;;;;;8.94;83.52;99752.74;105461;1258;82802;-59
2023/12/30 00:42:59;;;;;;;2.80;1.10;;;;;;;8.98;83.55;99751.77;105559;1254;71839;-58
2023/12/30 00:45:28;;;;;;;2.60;1.20;;;;;;;9.02;83.62;99751.06;105630;1256;69157;-58
2023/12/30 00:47:57;;;;;;;2.20;1.40;;;;;;;9.04;83.56;99747.50;105555;1256;69228;-59
2023/12/30 00:50:25;;;;;;;2.90;1.50;;;;;;;9.03;83.37;99744.72;105444;1251;73628;-58
2023/12/30 00:52:53;;;;;;;6.50;4.00;;;;;;;9.04;83.37;99746.80;105624;1258;82033;-59
2023/12/30 00:55:21;;;;;;;4.90;2.10;;;;;;;9.04;83.27;99746.80;105590;1251;70324;-58
2023/12/30 00:57:49;;;;;;;6.30;1.70;;;;;;;9.03;83.13;99748.40;105567;1257;69211;-58
2023/12/30 01:00:20;;;;;;;3.10;1.60;;;;;;;9.02;83.39;99744.95;105618;1257;69186;-59
2023/12/30 01:02:48;;;;;;;1.80;1.10;;;;;;;9.01;83.15;99741.71;105641;1251;73506;-58
2023/12/30 01:05:16;;;;;;;3.00;1.50;;;;;;;8.99;83.18;99736.52;105602;1256;82821;-58
2023/12/30 01:07:45;;;;;;;7.40;4.80;;;;;;;8.98;83.09;99737.99;105608;1256;72849;-58
2023/12/30 01:10:16;;;;;;;4.00;2.90;;;;;;;8.96;83.10;99732.15;105593;1257;69218;-59
2023/12/30 01:12:44;;;;;;;2.50;1.50;;;;;;;8.92;82.97;99732.64;105504;1256;69169;-59
2023/12/30 01:15:12;;;;;;;2.70;1.90;;;;;;;8.89;82.83;99732.94;105551;1252;73026;-59
2023/12/30 01:17:40;;;;;;;4.10;3.20;;;;;;;8.84;82.95;99734.71;105533;1251;82746;-58
2023/12/30 01:20:09;;;;;;;1.60;0.90;;;;;;;8.79;82.81;99740.67;105597;1257;71792;-58
2023/12/30 01:22:39;;;;;;;1.90;0.90;;;;;;;8.72;82.77;99743.90;105592;1257;71245;-58
2023/12/30 01:25:08;;;;;;;3.80;1.00;;;;;;;8.67;82.74;99747.05;105603;1256;69186;-58
2023/12/30 01:27:36;;;;;;;1.40;0.80;;;;;;;8.65;83.20;99751.34;105650;1252;73145;-58
2023/12/30 01:30:06;;;;;;;2.00;0.90;;;;;;;8.62;82.99;99751.95;105621;1256;83580;-58
2023/12/30 01:32:34;;;;;;;2.10;1.00;;;;;;;8.60;83.23;99750.48;105601;1252;71961;-58
2023/12/30 01:35:03;;;;;;;2.20;1.10;;;;;;;8.59;83.40;99747.36;105544;1256;69170;-58
2023/12/30 01:37:33;;;;;;;1.50;1.00;;;;;;;8.59;83.50;99743.02;105629;1256;69154;-58
2023/12/30 01:40:02;;;;;;;2.40;1.20;;;;;;;8.58;83.29;99740.28;105523;1256;73499;-58
2023/12/30 01:42:30;;;;;;;2.00;0.90;;;;;;;8.56;83.24;99731.65;105609;1255;80337;-58
2023/12/30 01:44:59;;;;;;;1.90;1.40;;;;;;;8.53;83.26;99730.56;105593;1251;71896;-58
2023/12/30 01:47:27;;;;;;;2.10;1.00;;;;;;;8.48;83.23;99728.83;105423;1251;69096;-59
2023/12/30 01:49:55;;;;;;;2.40;0.90;;;;;;;8.44;83.29;99725.50;105590;1255;69194;-59
2023/12/30 01:52:24;;;;;;;2.00;0.90;;;;;;;8.40;83.27;99726.36;105572;1256;72590;-59
2023/12/30 01:54:52;;;;;;;1.40;0.90;;;;;;;8.35;83.25;99724.24;105523;1253;81770;-58
2023/12/30 01:57:21;;;;;;;2.10;0.80;;;;;;;8.31;83.13;99724.77;105632;1251;71739;-58
2023/12/30 01:59:49;;;;;;;1.40;1.00;;;;;;;8.26;83.34;99718.49;105440;1254;69179;-58
2023/12/30 02:02:18;;;;;;;1.60;1.00;;;;;;;8.25;83.27;99710.71;105560;1251;69174;-58
2023/12/30 02:04:46;;;;;;;1.70;0.90;;;;;;;8.23;83.67;99708.02;105582;1251;74751;-58
2023/12/30 02:07:14;;;;;;;2.10;1.10;;;;;;;8.20;83.68;99706.55;105607;1255;81716;-58
2023/12/30 02:09:43;;;;;;;2.70;1.30;;;;;;;8.17;83.57;99708.06;105561;1256;72819;-58
2023/12/30 02:12:11;;;;;;;2.40;1.00;;;;;;;8.15;83.44;99703.10;105569;1255;69145;-58
2023/12/30 02:14:39;;;;;;;1.70;0.90;;;;;;;8.12;83.57;99705.11;105564;1257;69172;-58
2023/12/30 02:17:07;;;;;;;1.40;0.90;;;;;;;8.10;83.74;99704.51;105679;1251;72078;-58
2023/12/30 02:19:36;;;;;;;1.50;0.90;;;;;;;8.07;83.50;99702.16;105508;1256;82449;-58
2023/12/30 02:22:04;;;;;;;1.90;0.80;;;;;;;8.04;83.75;99707.34;105560;1251;72987;-59
2023/12/30 02:24:32;;;;;;;0.90;0.70;;;;;;;8.00;83.56;99709.93;105581;1251;69117;-58
2023/12/30 02:27:00;;;;;;;1.00;0.70;;;;;;;7.96;83.56;99713.88;105553;1256;69198;-58
2023/12/30 02:29:29;;;;;;;3.40;0.90;;;;;;;7.94;83.65;99708.74;105500;1251;74026;-59
2023/12/30 02:31:57;;;;;;;1.90;0.70;;;;;;;7.95;84.01;99709.60;105532;1256;81407;-58
2023/12/30 02:34:27;;;;;;;1.50;0.80;;;;;;;7.98;84.20;99710.52;105714;1251;72853;-58
2023/12/30 02:36:55;;;;;;;1.70;0.70;;;;;;;8.08;84.13;99709.11;105546;1254;69147;-58
2023/12/30 02:39:26;;;;;;;1.30;0.70;;;;;;;8.17;84.39;99703.87;105674;1251;69175;-58
2023/12/30 02:41:54;;;;;;;1.80;0.60;;;;;;;8.25;84.33;99700.59;105614;1251;72899;-58
2023/12/30 02:44:22;;;;;;;2.60;0.90;;;;;;;8.39;84.40;99700.27;105568;1252;81988;-58
2023/12/30 02:46:51;;;;;;;1.80;0.70;;;;;;;8.50;84.36;99695.67;105427;1251;71730;-58
2023/12/30 02:49:20;;;;;;;1.80;0.60;;;;;;;8.59;83.95;99697.05;105476;1256;69122;-58
2023/12/30 02:51:48;;;;;;;1.50;0.80;;;;;;;8.69;83.97;99697.33;105461;1256;69129;-58
2023/12/30 02:54:16;;;;;;;0.80;0.40;;;;;;;8.79;83.69;99702.71;105579;1256;73351;-58
2023/12/30 02:56:45;;;;;;;1.70;0.60;;;;;;;8.87;83.26;99714.69;105616;1252;83239;-58
2023/12/30 02:59:13;;;;;;;1.00;0.50;;;;;;;8.95;83.18;99710.05;105589;1255;71254;-58
2023/12/30 03:01:41;;;;;;;1.80;0.50;;;;;;;8.99;82.80;99715.27;105484;1257;69103;-58
2023/12/30 03:04:10;;;;;;;0.80;0.50;;;;;;;9.07;82.78;99722.75;105603;1251;69814;-58
2023/12/30 03:06:38;;;;;;;2.40;0.60;;;;;;;9.20;82.72;99716.66;105592;1253;73042;-58
2023/12/30 03:09:06;;;;;;;1.10;0.40;;;;;;;9.29;82.58;99732.16;105563;1257;81841;-58
2023/12/30 03:11:35;;;;;;;1.30;0.60;;;;;;;9.35;82.25;99739.23;105449;1257;71846;-58
2023/12/30 03:14:03;;;;;;;0.90;0.50;;;;;;;9.42;81.79;99745.91;105559;1251;69082;-58
2023/12/30 03:16:31;;;;;;;0.80;0.50;;;;;;;9.51;81.68;99746.04;105453;1257;69203;-58
2023/12/30 03:19:00;;;;;;;1.80;0.70;;;;;;;9.53;81.78;99779.95;105627;1255;73429;-59
2023/12/30 03:21:29;;;;;;;1.00;0.50;;;;;;;9.42;81.43;99829.23;105617;1251;81490;-60
2023/12/30 03:23:57;;;;;;;0.60;0.30;;;;;;;8.88;80.66;99839.60;105535;1251;70682;-60
2023/12/30 03:26:25;;;;;;;1.30;0.20;;;;;;;8.26;81.23;99842.25;105579;1255;69119;-60
2023/12/30 03:28:53;;;;;;;1.00;0.50;;;;;;;7.72;81.99;99838.59;105633;1253;69263;-60
2023/12/30 03:31:24;;;;;;;0.50;0.30;;;;;;;7.32;83.08;99841.14;105590;1251;72927;-60
2023/12/30 03:33:54;;;;;;;0.10;0.10;;;;;;;7.00;83.96;99839.55;105552;1251;81838;-60
2023/12/30 03:36:23;;;;;;;0.90;0.20;;;;;;;6.76;84.83;99830.08;105641;1256;71043;-60
2023/12/30 03:38:52;;;;;;;0.60;0.20;;;;;;;6.60;85.63;99834.55;105543;1251;69190;-60
2023/12/30 03:41:21;;;;;;;0.80;0.20;;;;;;;6.46;86.55;99838.23;105557;1257;69138;-60
2023/12/30 03:43:49;;;;;;;3.10;0.20;;;;;;;6.34;87.04;99839.10;105616;1256;73518;-60
2023/12/30 03:46:18;;;;;;;0.80;0.20;;;;;;;6.25;88.02;99836.23;105615;1252;82815;-60
2023/12/30 03:48:46;;;;;;;0.20;0.10;;;;;;;6.20;88.41;99835.85;105657;1257;72252;-60
2023/12/30 03:51:15;;;;;;;1.10;0.10;;;;;;;6.17;89.26;99826.75;105587;1255;69144;-60
2023/12/30 03:53:43;;;;;;;0.10;0.10;;;;;;;6.15;89.67;99829.40;105526;1257;69118;-60
2023/12/30 03:56:12;;;;;;;1.70;0.10;;;;;;;6.15;90.02;99835.48;105657;1256;72797;-60
2023/12/30 03:58:41;;;;;;;2.00;0.20;;;;;;;6.15;90.46;99833.92;105565;1256;81531;-60
2023/12/30 04:01:10;;;;;;;1.30;0.10;;;;;;;6.16;90.90;99834.08;105574;1252;71679;-60
2023/12/30 04:03:38;;;;;;;0.90;0.10;;;;;;;6.15;91.40;99823.34;105654;1255;69120;-60
2023/12/30 04:06:07;;;;;;;0.70;0.20;;;;;;;6.13;91.67;99814.72;105553;1253;69059;-60
2023/12/30 04:08:35;;;;;;;0.80;0.10;;;;;;;6.12;91.85;99818.23;105643;1256;71840;-60
2023/12/30 04:11:03;;;;;;;0.50;0.20;;;;;;;6.09;91.89;99821.77;105648;1256;81412;-60
2023/12/30 04:13:32;;;;;;;0.30;0.10;;;;;;;6.07;92.37;99817.50;105562;1256;71740;-60
2023/12/30 04:16:01;;;;;;;0.00;0.00;;;;;;;6.06;92.69;99814.42;105450;1257;69187;-60
2023/12/30 04:18:29;;;;;;;1.50;0.20;;;;;;;6.04;92.98;99814.09;105472;1257;69215;-60
2023/12/30 04:20:58;;;;;;;0.90;0.10;;;;;;;6.03;93.16;99811.17;105660;1251;72913;-60
2023/12/30 04:23:27;;;;;;;1.10;0.20;;;;;;;6.03;93.18;99815.33;105454;1258;82825;-60
2023/12/30 04:25:55;;;;;;;0.70;0.20;;;;;;;6.02;93.72;99829.95;105606;1251;73616;-59
2023/12/30 04:28:23;;;;;;;0.10;0.10;;;;;;;6.02;93.80;99826.80;105465;1255;69122;-59
2023/12/30 04:30:51;;;;;;;0.30;0.20;;;;;;;6.03;93.76;99823.48;105505;1256;69158;-59
2023/12/30 04:33:20;;;;;;;1.20;0.10;;;;;;;6.02;94.20;99821.95;105615;1255;73148;-59
2023/12/30 04:35:48;;;;;;;0.40;0.20;;;;;;;6.01;94.11;99824.08;105564;1257;81387;-59
2023/12/30 04:38:18;;;;;;;0.70;0.20;;;;;;;5.98;94.12;99832.98;105469;1253;70200;-59
2023/12/30 04:40:46;;;;;;;0.50;0.30;;;;;;;5.97;94.17;99833.04;105558;1256;69135;-59
2023/12/30 04:43:14;;;;;;;1.40;0.40;;;;;;;5.96;94.40;99830.12;105554;1256;69192;-59
2023/12/30 04:45:42;;;;;;;0.40;0.20;;;;;;;5.94;94.54;99833.27;105441;1254;73236;-59
2023/12/30 04:48:11;;;;;;;1.70;0.50;;;;;;;5.96;94.72;99834.80;105522;1256;82724;-59
2023/12/30 04:50:39;;;;;;;1.10;0.20;;;;;;;5.96;95.06;99830.27;105406;1253;72004;-59
2023/12/30 04:53:07;;;;;;;1.60;0.30;;;;;;;5.98;95.11;99830.92;105595;1253;69176;-58
2023/12/30 04:55:36;;;;;;;1.40;0.20;;;;;;;5.97;95.23;99834.26;105615;1257;69122;-59
2023/12/30 04:58:04;;;;;;;0.30;0.10;;;;;;;5.97;95.25;99829.23;105526;1253;73732;-59
2023/12/30 05:00:33;;;;;;;1.20;0.20;;;;;;;6.00;95.64;99830.35;105563;1257;82820;-59
2023/12/30 05:03:01;;;;;;;0.50;0.40;;;;;;;6.01;95.41;99828.77;105556;1253;72962;-59
2023/12/30 05:05:31;;;;;;;0.70;0.30;;;;;;;6.01;95.53;99826.86;105548;1256;69172;-59
2023/12/30 05:07:59;;;;;;;0.20;0.20;;;;;;;6.00;95.57;99828.60;105496;1255;69126;-58
2023/12/30 05:10:30;;;;;;;0.30;0.20;;;;;;;6.02;95.49;99832.20;105564;1252;74109;-58
2023/12/30 05:13:00;;;;;;;1.90;0.20;;;;;;;6.01;95.57;99825.11;105595;1256;82099;-59
2023/12/30 05:15:29;;;;;;;0.90;0.30;;;;;;;6.00;95.65;99831.20;105545;1253;70189;-58
2023/12/30 05:17:57;;;;;;;1.30;0.30;;;;;;;6.04;95.97;99833.71;105622;1253;69066;-58
2023/12/30 05:20:26;;;;;;;1.60;0.30;;;;;;;6.09;96.23;99833.04;105597;1257;69206;-58
2023/12/30 05:22:54;;;;;;;0.90;0.20;;;;;;;6.17;96.56;99829.88;105546;1252;71787;-59
2023/12/30 05:25:22;;;;;;;0.40;0.10;;;;;;;6.27;96.60;99834.63;105564;1256;81911;-58
2023/12/30 05:27:50;;;;;;;1.30;0.50;;;;;;;6.38;96.84;99835.70;105594;1253;71773;-59
2023/12/30 05:30:18;;;;;;;0.70;0.30;;;;;;;6.47;96.86;99843.05;105561;1257;69141;-59
2023/12/30 05:32:46;;;;;;;0.80;0.20;;;;;;;6.58;96.80;99848.67;105598;1256;69147;-59
2023/12/30 05:35:15;;;;;;;2.20;0.30;;;;;;;6.67;96.81;99849.45;105535;1253;74152;-58
2023/12/30 05:37:43;;;;;;;1.20;0.30;;;;;;;6.71;96.57;99843.58;105640;1251;81550;-59
2023/12/30 05:40:11;;;;;;;0.40;0.20;;;;;;;6.74;96.46;99847.84;105664;1251;70490;-59
2023/12/30 05:42:40;;;;;;;0.40;0.20;;;;;;;6.74;96.24;99861.37;105593;1253;69118;-59
2023/12/30 05:45:09;;;;;;;4.80;1.70;;;;;;;6.76;96.36;99872.95;105636;1255;69174;-59
2023/12/30 05:47:37;;;;;;;3.00;1.20;;;;;;;6.77;96.12;99887.52;105641;1251;73184;-59
2023/12/30 05:50:06;;;;;;;2.50;0.80;;;;;;;6.79;96.13;99890.40;105632;1256;82797;-58
2023/12/30 05:52:34;;;;;;;1.00;0.50;;;;;;;6.78;96.39;99896.48;105487;1257;71318;-59
2023/12/30 05:55:02;;;;;;;1.00;0.40;;;;;;;6.77;96.13;99887.50;105566;1255;69181;-59
2023/12/30 05:57:31;;;;;;;1.00;0.40;;;;;;;6.76;96.17;99919.66;105665;1255;69153;-59
2023/12/30 06:00:02;;;;;;;1.40;0.50;;;;;;;6.73;96.42;99933.45;105577;1255;72633;-60
2023/12/30 06:02:39;;;;;;;1.00;0.40;;;;;;;6.66;96.20;99937.46;105593;1255;81476;-61
2023/12/30 06:05:07;;;;;;;0.90;0.40;;;;;;;6.50;95.79;99961.02;105591;1252;71846;-60
2023/12/30 06:07:38;;;;;;;0.80;0.30;;;;;;;6.27;95.70;99970.99;105570;1254;69146;-60
2023/12/30 06:10:07;;;;;;;1.00;0.40;;;;;;;6.03;95.61;99967.28;105673;1256;69116;-60
2023/12/30 06:12:36;;;;;;;1.20;0.40;;;;;;;5.84;95.89;99981.23;105614;1251;73115;-60
2023/12/30 06:15:05;;;;;;;2.10;0.80;;;;;;;5.69;96.31;99993.58;105605;1255;82713;-60
2023/12/30 06:17:34;;;;;;;3.80;1.10;;;;;;;5.55;96.56;100000.65;105607;1255;72029;-60
2023/12/30 06:20:04;;;;;;;2.00;0.70;;;;;;;5.43;96.94;100003.52;105542;1256;69111;-60
2023/12/30 06:22:32;;;;;;;1.20;0.40;;;;;;;5.34;97.50;100008.39;105608;1252;69173;-60
2023/12/30 06:25:01;;;;;;;0.70;0.30;;;;;;;5.27;97.55;100013.75;105655;1251;73004;-60
2023/12/30 06:27:29;;;;;;;0.10;0.10;;;;;;;5.20;97.73;100013.20;105617;1255;81410;-59
2023/12/30 06:29:58;;;;;;;0.30;0.20;;;;;;;5.10;97.95;100016.02;105583;1251;72028;-60
2023/12/30 06:32:26;;;;;;;1.60;0.30;;;;;;;5.04;97.99;100029.13;105655;1253;69138;-59
2023/12/30 06:34:54;;;;;;;1.90;0.40;;;;;;;4.98;98.23;100023.54;105601;1255;69140;-59
2023/12/30 06:37:22;;;;;;;0.20;0.10;;;;;;;4.94;98.54;100017.56;105617;1253;73472;-59
2023/12/30 06:39:51;;;;;;;3.10;0.50;;;;;;;4.88;98.68;100003.46;105572;1255;81908;-59
2023/12/30 06:42:19;;;;;;;6.10;2.10;;;;;;;4.85;99.11;99999.38;105665;1251;71732;-59
2023/12/30 06:44:47;;;;;;;1.90;0.70;;;;;;;4.82;99.24;99995.81;105652;1251;69069;-59
2023/12/30 06:47:16;;;;;;;0.80;0.30;;;;;;;4.75;99.13;99995.94;105594;1255;69171;-59
2023/12/30 06:49:44;;;;;;;2.00;0.50;;;;;;;4.70;99.08;99999.50;105601;1251;72827;-59
2023/12/30 06:52:12;;;;;;;1.40;0.50;;;;;;;4.66;99.38;100009.97;105573;1251;80955;-59
2023/12/30 06:54:40;;;;;;;2.30;0.50;;;;;;;4.62;99.51;100022.50;105569;1256;71437;-59
2023/12/30 06:57:08;;;;;;;2.30;0.60;;;;;;;4.59;99.83;100030.86;105638;1255;69084;-59
2023/12/30 06:59:37;;;;;;;1.70;0.50;;;;;;;4.57;99.95;100012.04;105599;1256;69267;-59
2023/12/30 07:02:05;;;;;;;0.50;0.10;;;;;;;4.55;99.98;100011.55;105641;1251;73077;-59
2023/12/30 07:04:33;;;;;;;0.70;0.30;;;;;;;4.53;100.00;99998.79;105646;1256;81420;-59
2023/12/30 07:07:01;;;;;;;0.50;0.30;;;;;;;4.52;99.97;99998.80;105598;1251;71665;-59
2023/12/30 07:09:30;;;;;;;0.10;0.10;;;;;;;4.50;100.00;100003.69;105647;1252;69113;-59
2023/12/30 07:11:58;;;;;;;1.20;0.00;;;;;;;4.50;99.98;100021.69;105589;1253;69244;-59
2023/12/30 07:14:26;;;;;;;0.30;0.10;;;;;;;4.50;100.00;100019.45;105563;1251;73173;-59
2023/12/30 07:16:54;;;;;;;0.10;0.10;;;;;;;4.50;100.00;100027.75;105637;1251;81710;-59
2023/12/30 07:19:23;;;;;;;0.40;0.20;;;;;;;4.48;100.00;100022.73;105643;1255;71330;-59
2023/12/30 07:21:51;;;;;;;1.60;0.20;;;;;;;4.48;100.00;100016.70;105600;1256;69106;-59
2023/12/30 07:24:20;;;;;;;0.60;0.10;;;;;;;4.48;100.00;100022.75;105633;1256;69893;-59
2023/12/30 07:26:48;;;;;;;0.50;0.10;;;;;;;4.48;100.00;100028.28;105427;1251;73457;-59
2023/12/30 07:29:16;;;;;;;2.30;0.50;;;;;;;4.49;100.00;100042.12;105623;1255;82601;-59
2023/12/30 07:31:44;;;;;;;1.90;0.30;;;;;;;4.50;100.00;100053.52;105537;1254;72092;-59
2023/12/30 07:34:13;;;;;;;0.70;0.20;;;;;;;4.50;100.00;100056.46;105624;1253;69081;-59
2023/12/30 07:36:41;;;;;;;1.20;0.20;;;;;;;4.51;99.97;100054.88;105561;1255;69192;-59
2023/12/30 07:39:09;;;;;;;1.00;0.20;;;;;;;4.52;99.99;100052.61;105663;1255;74110;-59
2023/12/30 07:41:38;;;;;;;2.70;0.30;;;;;;;4.51;100.00;100056.26;105566;1251;81458;-59
2023/12/30 07:44:06;;;;;;;1.90;0.20;;;;;;;4.52;100.00;100054.52;105582;1256;71822;-59
2023/12/30 07:46:35;;;;;;;1.00;0.20;;;;;;;4.52;100.00;100064.73;105561;1255;69734;-59
2023/12/30 07:49:03;;;;;;;0.90;0.10;;;;;;;4.52;100.00;100070.44;105611;1255;69186;-59
2023/12/30 07:51:31;;;;;;;0.60;0.30;;;;;;;4.52;100.00;100075.63;105655;1251;74028;-59
2023/12/30 07:54:00;;;;;;;1.00;0.20;;;;;;;4.53;100.00;100071.30;105606;1256;81228;-59
2023/12/30 07:56:28;;;;;;;1.40;0.20;;;;;;;4.55;100.00;100070.92;105567;1253;70442;-59
2023/12/30 07:58:56;;;;;;;1.10;0.20;;;;;;;4.58;100.00;100073.98;105599;1251;69101;-59
2023/12/30 08:01:24;;;;;;;1.30;0.20;;;;;;;4.60;100.00;100082.57;105582;1253;69013;-59
2023/12/30 08:03:53;;;;;;;0.50;0.20;;;;;;;4.64;100.00;100087.52;105560;1251;72951;-59
2023/12/30 08:06:21;;;;;;;1.30;0.30;;;;;;;4.69;100.00;100089.86;105627;1253;82665;-59
2023/12/30 08:08:49;;;;;;;0.80;0.20;;;;;;;4.73;100.00;100085.63;105658;1256;73038;-59
2023/12/30 08:11:17;;;;;;;2.60;0.40;;;;;;;4.77;100.00;100096.64;105597;1251;69096;-59
2023/12/30 08:13:46;;;;;;;1.50;0.40;;;;;;;4.83;100.00;100103.45;105597;1255;69185;-59
2023/12/30 08:16:14;;;;;;;1.50;0.50;;;;;;;4.91;100.00;100109.20;105592;1255;73066;-59
2023/12/30 08:18:42;;;;;;;1.20;0.30;;;;;;;4.99;100.00;100112.86;105602;1255;82075;-59
2023/12/30 08:21:10;;;;;;;1.20;0.20;;;;;;;5.07;100.00;100115.30;105619;1255;72864;-59
2023/12/30 08:23:38;;;;;;;0.90;0.30;;;;;;;5.12;100.00;100118.16;105576;1251;69124;-59
2023/12/30 08:26:06;;;;;;;2.60;0.20;;;;;;;5.14;100.00;100121.23;105611;1255;69894;-59
2023/12/30 08:28:35;;;;;;;3.40;0.70;;;;;;;5.16;100.00;100128.48;105615;1253;72777;-59
2023/12/30 08:31:03;;;;;;;0.80;0.40;;;;;;;5.18;100.00;100129.83;105593;1255;81747;-59
2023/12/30 08:33:32;;;;;;;0.90;0.30;;;;;;;5.20;100.00;100135.84;105641;1254;72013;-59
2023/12/30 08:36:00;;;;;;;1.00;0.30;;;;;;;5.23;100.00;100138.20;105625;1253;69151;-59
2023/12/30 08:38:31;;;;;;;1.60;0.40;;;;;;;5.26;100.00;100139.71;105660;1253;69264;-59
2023/12/30 08:40:59;;;;;;;1.10;0.20;;;;;;;5.29;100.00;100143.29;105646;1254;72873;-59
2023/12/30 08:43:29;;;;;;;1.20;0.20;;;;;;;5.31;100.00;100147.40;105562;1255;81533;-59
2023/12/30 08:45:57;;;;;;;1.60;0.20;;;;;;;5.35;100.00;100152.33;105580;1255;70881;-59
2023/12/30 08:48:26;;;;;;;0.50;0.20;;;;;;;5.38;100.00;100158.70;105646;1255;69123;-59
2023/12/30 08:50:54;;;;;;;0.40;0.10;;;;;;;5.41;100.00;100156.05;105585;1251;69174;-59
2023/12/30 08:53:24;;;;;;;0.80;0.20;;;;;;;5.44;100.00;100158.94;105545;1252;74190;-59
2023/12/30 08:55:55;;;;;;;1.20;0.30;;;;;;;5.47;100.00;100156.96;105652;1255;81988;-59
2023/12/30 08:58:24;;;;;;;0.70;0.20;;;;;;;5.51;100.00;100163.13;105602;1251;72159;-59
2023/12/30 09:00:53;;;;;;;0.90;0.40;;;;;;;5.55;100.00;100175.52;105592;1251;69175;-59
2023/12/30 09:03:21;;;;;;;0.70;0.30;;;;;;;5.59;100.00;100173.36;105591;1256;69545;-59
2023/12/30 09:05:50;;;;;;;1.50;0.50;;;;;;;5.65;100.00;100172.90;105642;1251;73909;-59
2023/12/30 09:08:19;;;;;;;0.20;0.20;;;;;;;5.69;100.00;100180.09;105570;1255;81694;-59
2023/12/30 09:10:47;;;;;;;1.60;0.40;;;;;;;5.74;100.00;100190.58;105481;1253;72140;-59
2023/12/30 09:13:15;;;;;;;3.20;0.40;;;;;;;5.78;100.00;100193.25;105577;1251;69110;-59
2023/12/30 09:15:43;;;;;;;1.00;0.30;;;;;;;5.83;100.00;100206.00;105648;1255;69139;-59
2023/12/30 09:18:12;;;;;;;1.00;0.20;;;;;;;5.86;100.00;100208.18;105591;1255;73385;-58
2023/12/30 09:20:43;;;;;;;1.60;0.50;;;;;;;5.90;100.00;100215.05;105604;1251;81737;-59
2023/12/30 09:23:11;;;;;;;0.60;0.30;;;;;;;5.92;100.00;100220.90;105587;1255;71780;-59
2023/12/30 09:25:39;;;;;;;1.90;0.50;;;;;;;5.94;100.00;100218.10;105587;1255;69201;-59
2023/12/30 09:28:08;;;;;;;0.50;0.20;;;;;;;5.95;100.00;100219.80;105616;1256;69141;-59
2023/12/30 09:30:36;;;;;;;1.80;0.20;;;;;;;5.98;100.00;100219.40;105612;1251;73172;-59
2023/12/30 09:33:04;;;;;;;1.50;0.50;;;;;;;6.00;100.00;100218.84;105480;1258;83297;-59
2023/12/30 09:35:36;;;;;;;2.30;0.40;;;;;;;6.02;100.00;100219.83;105600;1253;71753;-59
2023/12/30 09:38:05;;;;;;;2.80;0.50;;;;;;;6.05;100.00;100221.18;105566;1251;69110;-59
2023/12/30 09:40:33;;;;;;;1.70;0.30;;;;;;;6.06;100.00;100222.52;105597;1255;69180;-59
2023/12/30 09:43:05;;;;;;;0.80;0.30;;;;;;;6.08;99.96;100229.77;105626;1253;73925;-59
2023/12/30 09:45:37;;;;;;;0.60;0.30;;;;;;;6.11;99.98;100233.87;105608;1251;80411;-59
2023/12/30 09:48:08;;;;;;;2.30;0.40;;;;;;;6.14;99.91;100237.45;105576;1251;72208;-59
2023/12/30 09:50:37;;;;;;;1.10;0.30;;;;;;;6.19;99.85;100238.03;105608;1256;69197;-60
2023/12/30 09:53:05;;;;;;;3.20;0.30;;;;;;;6.24;99.53;100241.39;105617;1255;69190;-59
2023/12/30 09:55:34;;;;;;;1.10;0.30;;;;;;;6.28;99.67;100240.10;105655;1253;73222;-59
2023/12/30 09:58:05;;;;;;;1.20;0.30;;;;;;;6.34;99.55;100241.71;105523;1253;82861;-59
2023/12/30 10:00:38;;;;;;;1.40;0.50;;;;;;;6.39;99.45;100247.84;105642;1255;71632;-59
2023/12/30 10:03:06;;;;;;;1.90;0.40;;;;;;;6.45;99.25;100240.59;105619;1255;69124;-59
2023/12/30 10:05:35;;;;;;;3.20;0.70;;;;;;;6.50;99.24;100241.00;105604;1255;69157;-60
2023/12/30 10:08:04;;;;;;;3.00;0.60;;;;;;;6.56;98.70;100239.48;105542;1251;72550;-59
2023/12/30 10:10:46;;;;;;;2.40;0.60;;;;;;;6.60;98.90;100237.30;105643;1255;81785;-59
2023/12/30 10:13:25;;;;;;;1.50;0.30;;;;;;;6.61;98.54;100234.65;105583;1255;71898;-59
2023/12/30 10:15:57;;;;;;;2.30;0.50;;;;;;;6.63;98.07;100236.00;105632;1256;69128;-59
2023/12/30 10:18:25;;;;;;;2.10;0.40;;;;;;;6.66;97.94;100229.67;105601;1252;69128;-59
2023/12/30 10:20:55;;;;;;;1.70;0.40;;;;;;;6.70;97.90;100233.40;105567;1253;73322;-59
2023/12/30 10:23:24;;;;;;;2.30;0.60;;;;;;;6.76;97.97;100235.55;105608;1253;82050;-59
2023/12/30 10:25:52;;;;;;;1.40;0.40;;;;;;;6.77;97.57;100240.55;105466;1253;71521;-59
2023/12/30 10:28:20;;;;;;;1.00;0.40;;;;;;;6.78;97.18;100239.31;105585;1251;69073;-59
2023/12/30 10:31:00;;;;;;;1.40;0.50;;;;;;;6.78;97.08;100242.61;105637;1253;69729;-60
2023/12/30 10:33:28;;;;;;;3.10;0.50;;;;;;;6.77;96.88;100240.20;105592;1253;75229;-59
2023/12/30 10:35:57;;;;;;;1.00;0.40;;;;;;;6.79;96.77;100245.72;105552;1255;82700;-60
2023/12/30 10:38:26;;;;;;;0.80;0.30;;;;;;;6.81;96.65;100251.20;105615;1253;70434;-59
2023/12/30 10:40:54;;;;;;;1.60;0.60;;;;;;;6.84;96.38;100250.09;105415;1253;284337;-60
2023/12/30 10:43:23;;;;;;;3.60;0.50;;;;;;;6.90;96.32;100252.02;105497;1257;69278;-59
2023/12/30 10:45:58;;;;;;;2.80;0.60;;;;;;;6.99;95.91;100253.55;105657;1253;72788;-59
2023/12/30 10:48:31;;;;;;;2.60;0.70;;;;;;;7.22;95.89;100253.48;105578;1255;83619;-59
2023/12/30 10:51:01;;;;;;;4.10;1.00;;;;;;;7.44;95.86;100252.59;105607;1255;70272;-59
2023/12/30 10:53:40;;;;;;;5.40;1.10;;;;;;;7.57;95.50;100256.41;105612;1253;69122;-59
2023/12/30 10:56:10;;;;;;;5.60;1.80;;;;;;;7.68;94.91;100256.28;105637;1251;69193;-59
2023/12/30 10:58:40;;;;;;;4.50;1.10;;;;;;;7.69;94.65;100260.44;105603;1255;71746;-59
2023/12/30 11:01:09;;;;;;;5.30;0.80;;;;;;;7.63;94.28;100260.78;105615;1255;82734;-59
2023/12/30 11:03:37;;;;;;;2.90;1.20;;;;;;;7.60;94.06;100264.84;105624;1256;72998;-59
2023/12/30 11:06:44;;;;;;;1.80;0.80;;;;;;;7.59;93.97;100273.73;105545;1255;69119;-59
2023/12/30 11:09:15;;;;;;;3.10;0.70;;;;;;;7.52;93.49;100270.80;105678;1256;69139;-59
2023/12/30 11:11:52;;;;;;;4.20;1.10;;;;;;;7.46;93.46;100270.95;105568;1253;73215;-59
2023/12/30 11:14:20;;;;;;;5.70;0.70;;;;;;;7.45;93.52;100272.72;105586;1251;80660;-59
2023/12/30 11:16:51;;;;;;;3.60;0.90;;;;;;;7.46;93.46;100276.01;105564;1252;71694;-57
2023/12/30 11:19:30;;;;;;;2.10;0.70;;;;;;;7.44;93.28;100274.66;105560;1256;69180;-58
2023/12/30 11:22:09;;;;;;;3.30;0.80;;;;;;;7.43;93.37;100274.16;105612;1253;69220;-59
2023/12/30 11:24:42;;;;;;;4.70;0.70;;;;;;;7.42;93.20;100274.91;105543;1253;72978;-59
2023/12/30 11:27:10;;;;;;;1.70;0.50;;;;;;;7.39;93.27;100269.05;105598;1252;81512;-58
2023/12/30 11:29:40;;;;;;;2.80;1.10;;;;;;;7.38;93.06;100270.81;105505;1251;72233;-59
2023/12/30 11:32:16;;;;;;;5.30;1.20;;;;;;;7.37;93.18;100273.45;105549;1255;69160;-59
2023/12/30 11:34:44;;;;;;;3.50;1.20;;;;;;;7.37;93.22;100271.18;105560;1255;69196;-59
2023/12/30 11:37:14;;;;;;;2.50;0.60;;;;;;;7.35;92.97;100274.02;105615;1253;74477;-59